createdAt,value
2019-01-03T00:00:06.534Z,53.49
2019-01-03T00:02:32.555Z,53.58
2019-01-03T00:04:58.598Z,53.46
2019-01-03T00:07:24.601Z,53.62
2019-01-03T00:09:50.595Z,53.48
2019-01-03T00:12:16.690Z,53.52
2019-01-03T00:14:42.694Z,53.41
2019-01-03T00:17:08.727Z,53.49
2019-01-03T00:19:34.723Z,53.44
2019-01-03T00:22:00.783Z,53.56
2019-01-03T00:24:26.783Z,53.54
2019-01-03T00:26:53.783Z,53.56
2019-01-03T00:29:20.019Z,53.46
2019-01-03T00:31:46.026Z,53.54
2019-01-03T00:34:12.055Z,53.52
2019-01-03T00:36:38.088Z,53.50
2019-01-03T00:39:04.104Z,53.53
2019-01-03T00:41:30.138Z,53.62
2019-01-03T00:43:56.150Z,53.54
2019-01-03T00:46:22.190Z,53.59
2019-01-03T00:48:48.207Z,53.47
2019-01-03T00:51:14.232Z,53.55
2019-01-03T00:53:40.231Z,53.81
2019-01-03T00:56:06.247Z,53.85
2019-01-03T00:58:32.379Z,53.92
2019-01-03T01:00:58.433Z,53.81
2019-01-03T01:03:24.523Z,53.87
2019-01-03T01:05:50.538Z,53.58
2019-01-03T01:08:16.571Z,52.80
2019-01-03T01:10:42.578Z,53.25
2019-01-03T01:13:08.581Z,53.39
2019-01-03T01:15:34.598Z,53.38
2019-01-03T01:18:00.614Z,53.68
2019-01-03T01:20:26.725Z,53.54
2019-01-03T01:22:52.739Z,53.64
2019-01-03T01:25:18.743Z,53.58
2019-01-03T01:27:45.022Z,53.90
2019-01-03T01:30:11.031Z,53.76
2019-01-03T01:32:37.030Z,53.62
2019-01-03T01:35:03.042Z,53.79
2019-01-03T01:37:29.111Z,54.13
2019-01-03T01:39:55.164Z,52.49
2019-01-03T01:42:21.179Z,53.61
2019-01-03T01:44:47.206Z,54.04
2019-01-03T01:47:13.211Z,52.97
2019-01-03T01:49:39.247Z,52.07
2019-01-03T01:52:05.259Z,51.41
2019-01-03T01:54:31.333Z,50.47
2019-01-03T01:56:57.599Z,50.19
2019-01-03T01:59:23.643Z,49.58
2019-01-03T02:01:50.287Z,49.34
2019-01-03T02:04:16.308Z,48.93
2019-01-03T02:06:42.319Z,48.67
2019-01-03T02:09:08.367Z,48.53
2019-01-03T02:11:34.442Z,48.36
2019-01-03T02:14:00.462Z,48.31
2019-01-03T02:16:26.462Z,48.04
2019-01-03T02:18:52.478Z,48.33
2019-01-03T02:21:18.581Z,48.81
2019-01-03T02:23:44.581Z,49.38
2019-01-03T02:26:10.621Z,49.71
2019-01-03T02:28:36.635Z,49.87
2019-01-03T02:31:02.672Z,50.18
2019-01-03T02:33:28.667Z,50.37
2019-01-03T02:35:54.678Z,50.42
2019-01-03T02:38:20.680Z,50.49
2019-01-03T02:40:46.682Z,50.52
2019-01-03T02:43:12.700Z,50.56
2019-01-03T02:45:38.711Z,50.63
2019-01-03T02:48:04.722Z,50.68
2019-01-03T02:50:30.721Z,50.75
2019-01-03T02:52:56.752Z,50.90
2019-01-03T02:55:22.751Z,51.12
2019-01-03T02:57:48.787Z,51.17
2019-01-03T03:00:14.979Z,51.30
2019-01-03T03:02:40.978Z,51.45
2019-01-03T03:05:06.979Z,51.44
2019-01-03T03:07:33.254Z,51.54
2019-01-03T03:09:59.280Z,51.61
2019-01-03T03:12:25.276Z,51.62
2019-01-03T03:14:51.313Z,51.58
2019-01-03T03:17:17.342Z,51.67
2019-01-03T03:19:43.345Z,51.60
2019-01-03T03:22:09.348Z,51.57
2019-01-03T03:24:35.721Z,51.62
2019-01-03T03:27:01.995Z,51.56
2019-01-03T03:29:28.102Z,51.74
2019-01-03T03:31:54.123Z,51.72
2019-01-03T03:34:20.123Z,51.65
2019-01-03T03:36:46.196Z,51.85
2019-01-03T03:39:12.314Z,51.83
2019-01-03T03:41:38.324Z,51.88
2019-01-03T03:44:04.623Z,51.91
2019-01-03T03:46:30.665Z,52.01
2019-01-03T03:48:56.977Z,52.03
2019-01-03T03:51:23.019Z,52.08
2019-01-03T03:53:49.041Z,52.09
2019-01-03T03:56:15.376Z,52.23
2019-01-03T03:58:41.395Z,52.25
2019-01-03T04:01:07.407Z,52.15
2019-01-03T04:03:33.780Z,52.09
2019-01-03T04:05:59.787Z,52.14
2019-01-03T04:08:25.884Z,52.06
2019-01-03T04:10:51.905Z,52.13
2019-01-03T04:13:17.905Z,52.12
2019-01-03T04:15:43.917Z,52.11
2019-01-03T04:18:10.459Z,52.10
2019-01-03T04:20:36.559Z,52.09
2019-01-03T04:23:02.705Z,52.14
2019-01-03T04:25:28.768Z,52.24
2019-01-03T04:27:54.773Z,52.23
2019-01-03T04:30:21.106Z,52.21
2019-01-03T04:32:47.128Z,52.33
2019-01-03T04:35:13.130Z,52.32
2019-01-03T04:37:39.137Z,52.33
2019-01-03T04:40:05.429Z,52.31
2019-01-03T04:42:31.440Z,52.33
2019-01-03T04:44:57.454Z,52.53
2019-01-03T04:47:23.479Z,52.50
2019-01-03T04:49:49.502Z,52.54
2019-01-03T04:52:15.515Z,52.51
2019-01-03T04:54:41.692Z,52.53
2019-01-03T04:57:08.251Z,52.49
2019-01-03T04:59:34.341Z,52.43
2019-01-03T05:02:01.324Z,52.42
2019-01-03T05:04:27.347Z,52.42
2019-01-03T05:06:53.379Z,52.35
2019-01-03T05:09:19.519Z,52.44
2019-01-03T05:11:45.620Z,52.36
2019-01-03T05:14:11.646Z,52.43
2019-01-03T05:16:37.690Z,52.40
2019-01-03T05:19:03.698Z,52.47
2019-01-03T05:21:30.074Z,52.47
2019-01-03T05:23:57.451Z,52.57
2019-01-03T05:26:23.866Z,52.68
2019-01-03T05:28:49.872Z,52.52
2019-01-03T05:31:15.911Z,52.55
2019-01-03T05:33:42.022Z,52.70
2019-01-03T05:36:08.025Z,52.65
2019-01-03T05:38:34.060Z,52.69
2019-01-03T05:41:00.134Z,52.62
2019-01-03T05:43:26.203Z,52.67
2019-01-03T05:45:52.196Z,52.51
2019-01-03T05:48:18.199Z,52.57
2019-01-03T05:50:44.244Z,52.53
2019-01-03T05:53:10.367Z,52.58
2019-01-03T05:55:36.414Z,52.53
2019-01-03T05:58:02.779Z,52.43
2019-01-03T06:00:28.779Z,52.45
2019-01-03T06:02:54.795Z,52.54
2019-01-03T06:05:20.795Z,52.49
2019-01-03T06:07:46.860Z,52.51
2019-01-03T06:10:12.868Z,52.73
2019-01-03T06:12:38.886Z,52.64
2019-01-03T06:15:04.882Z,52.62
2019-01-03T06:17:30.913Z,52.60
2019-01-03T06:19:56.942Z,52.58
2019-01-03T06:22:23.011Z,52.57
2019-01-03T06:24:49.042Z,52.66
2019-01-03T06:27:15.102Z,52.66
2019-01-03T06:29:41.240Z,52.55
2019-01-03T06:32:07.255Z,52.46
2019-01-03T06:34:33.257Z,52.71
2019-01-03T06:36:59.266Z,52.53
2019-01-03T06:39:25.309Z,52.50
2019-01-03T06:41:51.344Z,52.46
2019-01-03T06:44:17.379Z,52.43
2019-01-03T06:46:43.531Z,52.51
2019-01-03T06:49:09.795Z,52.51
2019-01-03T06:51:36.119Z,52.53
2019-01-03T06:54:02.210Z,52.56
2019-01-03T06:56:28.252Z,52.53
2019-01-03T06:58:54.269Z,52.52
2019-01-03T07:01:20.653Z,52.53
2019-01-03T07:03:46.746Z,52.55
2019-01-03T07:06:12.752Z,52.56
2019-01-03T07:08:38.811Z,52.63
2019-01-03T07:11:04.838Z,52.57
2019-01-03T07:13:30.859Z,52.63
2019-01-03T07:15:57.133Z,52.69
2019-01-03T07:18:23.132Z,52.57
2019-01-03T07:20:49.171Z,52.47
2019-01-03T07:23:15.182Z,52.55
2019-01-03T07:25:41.219Z,52.51
2019-01-03T07:28:07.362Z,52.51
2019-01-03T07:30:33.360Z,52.42
2019-01-03T07:32:59.394Z,52.41
2019-01-03T07:35:25.430Z,52.35
2019-01-03T07:37:51.435Z,52.34
2019-01-03T07:40:17.441Z,52.51
2019-01-03T07:42:43.430Z,52.35
2019-01-03T07:45:09.443Z,52.46
2019-01-03T07:47:35.444Z,52.40
2019-01-03T07:50:01.470Z,52.50
2019-01-03T07:52:27.791Z,52.54
2019-01-03T07:54:53.791Z,52.54
2019-01-03T07:57:19.815Z,52.56
2019-01-03T07:59:45.842Z,52.52
2019-01-03T08:02:11.834Z,52.50
2019-01-03T08:04:37.883Z,52.55
2019-01-03T08:07:03.907Z,52.51
2019-01-03T08:09:29.923Z,52.45
2019-01-03T08:11:57.908Z,52.38
2019-01-03T08:14:23.698Z,52.46
2019-01-03T08:16:49.767Z,52.32
2019-01-03T08:19:15.822Z,52.34
2019-01-03T08:21:41.940Z,52.29
2019-01-03T08:24:07.970Z,52.32
2019-01-03T08:26:33.991Z,52.32
2019-01-03T08:29:00.013Z,52.30
2019-01-03T08:31:26.024Z,52.32
2019-01-03T08:33:52.029Z,52.36
2019-01-03T08:36:18.286Z,52.45
2019-01-03T08:38:44.298Z,52.41
2019-01-03T08:41:10.333Z,52.38
2019-01-03T08:43:36.339Z,52.44
2019-01-03T08:46:02.426Z,52.41
2019-01-03T08:48:28.418Z,52.52
2019-01-03T08:50:54.432Z,52.50
2019-01-03T08:53:20.467Z,52.27
2019-01-03T08:55:46.528Z,52.19
2019-01-03T08:58:12.559Z,52.23
2019-01-03T09:00:38.630Z,52.28
2019-01-03T09:03:04.727Z,52.31
2019-01-03T09:05:30.916Z,52.22
2019-01-03T09:07:56.918Z,51.96
2019-01-03T09:10:22.947Z,51.96
2019-01-03T09:12:48.947Z,51.98
2019-01-03T09:15:14.978Z,52.06
2019-01-03T09:17:40.999Z,52.08
2019-01-03T09:20:07.077Z,52.15
2019-01-03T09:22:33.074Z,52.15
2019-01-03T09:24:59.081Z,52.20
2019-01-03T09:27:25.113Z,52.52
2019-01-03T09:29:51.129Z,52.33
2019-01-03T09:32:17.154Z,52.22
2019-01-03T09:34:43.191Z,52.29
2019-01-03T09:37:09.191Z,51.84
2019-01-03T09:39:35.206Z,51.73
2019-01-03T09:42:01.318Z,51.77
2019-01-03T09:44:27.378Z,51.74
2019-01-03T09:46:53.388Z,51.76
2019-01-03T09:49:19.411Z,51.76
2019-01-03T09:51:45.434Z,51.71
2019-01-03T09:54:11.442Z,51.83
2019-01-03T09:56:37.489Z,51.77
2019-01-03T09:59:03.481Z,51.83
2019-01-03T10:01:29.539Z,51.92
2019-01-03T10:03:55.612Z,52.30
2019-01-03T10:06:21.622Z,52.22
2019-01-03T10:08:47.731Z,52.09
2019-01-03T10:11:13.958Z,52.14
2019-01-03T10:13:40.195Z,52.23
2019-01-03T10:16:06.218Z,52.16
2019-01-03T10:18:32.261Z,52.18
2019-01-03T10:20:58.380Z,52.19
2019-01-03T10:23:24.423Z,52.17
2019-01-03T10:25:50.436Z,52.19
2019-01-03T10:28:16.463Z,52.27
2019-01-03T10:30:42.555Z,52.26
2019-01-03T10:33:08.607Z,52.32
2019-01-03T10:35:34.724Z,52.25
2019-01-03T10:38:00.883Z,52.24
2019-01-03T10:40:26.945Z,52.24
2019-01-03T10:42:52.942Z,52.31
2019-01-03T10:45:18.974Z,52.37
2019-01-03T10:47:44.999Z,52.44
2019-01-03T10:50:11.259Z,52.41
2019-01-03T10:52:37.266Z,52.33
2019-01-03T10:55:03.259Z,52.68
2019-01-03T10:57:29.278Z,51.78
2019-01-03T10:59:55.274Z,51.96
2019-01-03T11:02:21.274Z,52.13
2019-01-03T11:04:47.330Z,52.17
2019-01-03T11:07:13.339Z,52.24
2019-01-03T11:09:39.378Z,52.46
2019-01-03T11:12:05.383Z,52.48
2019-01-03T11:14:31.444Z,52.17
2019-01-03T11:16:57.489Z,52.31
2019-01-03T11:19:23.598Z,52.23
2019-01-03T11:21:49.604Z,52.23
2019-01-03T11:24:15.620Z,52.29
2019-01-03T11:26:41.638Z,52.34
2019-01-03T11:29:07.660Z,52.33
2019-01-03T11:31:33.731Z,52.38
2019-01-03T11:33:59.723Z,52.38
2019-01-03T11:36:25.754Z,51.96
2019-01-03T11:38:51.822Z,51.81
2019-01-03T11:41:17.842Z,51.92
2019-01-03T11:43:43.851Z,51.94
2019-01-03T11:46:09.869Z,51.99
2019-01-03T11:48:35.890Z,52.09
2019-01-03T11:51:01.975Z,52.12
2019-01-03T11:53:28.018Z,52.13
2019-01-03T11:55:55.019Z,52.14
2019-01-03T11:58:21.038Z,52.12
2019-01-03T12:00:47.057Z,52.15
2019-01-03T12:03:13.063Z,52.26
2019-01-03T12:05:39.311Z,52.20
2019-01-03T12:08:05.439Z,52.20
2019-01-03T12:10:31.442Z,52.26
2019-01-03T12:12:57.470Z,52.13
2019-01-03T12:15:23.482Z,52.12
2019-01-03T12:17:49.491Z,52.13
2019-01-03T12:20:15.518Z,52.12
2019-01-03T12:22:41.526Z,52.18
2019-01-03T12:25:07.599Z,52.07
2019-01-03T12:27:33.641Z,52.13
2019-01-03T12:29:59.652Z,52.16
2019-01-03T12:32:25.674Z,52.24
2019-01-03T12:34:51.738Z,52.12
2019-01-03T12:37:17.871Z,52.18
2019-01-03T12:39:43.903Z,52.15
2019-01-03T12:42:09.953Z,52.13
2019-01-03T12:44:35.959Z,52.24
2019-01-03T12:47:02.305Z,52.24
2019-01-03T12:49:28.333Z,52.26
2019-01-03T12:51:54.422Z,52.17
2019-01-03T12:54:20.493Z,52.26
2019-01-03T12:56:46.558Z,52.30
2019-01-03T12:59:12.632Z,52.30
2019-01-03T13:01:38.655Z,52.18
2019-01-03T13:04:04.716Z,52.25
2019-01-03T13:06:30.726Z,52.27
2019-01-03T13:08:56.768Z,52.16
2019-01-03T13:11:23.016Z,52.18
2019-01-03T13:13:49.131Z,52.13
2019-01-03T13:16:15.154Z,52.10
2019-01-03T13:18:41.195Z,52.27
2019-01-03T13:21:07.241Z,52.35
2019-01-03T13:23:33.246Z,52.19
2019-01-03T13:25:59.327Z,52.10
2019-01-03T13:28:25.406Z,52.06
2019-01-03T13:30:51.414Z,52.10
2019-01-03T13:33:17.474Z,52.07
2019-01-03T13:35:43.584Z,52.16
2019-01-03T13:38:09.600Z,52.00
2019-01-03T13:40:35.631Z,52.20
2019-01-03T13:43:01.679Z,52.47
2019-01-03T13:45:27.696Z,52.14
2019-01-03T13:47:53.722Z,52.19
2019-01-03T13:50:20.004Z,52.16
2019-01-03T13:52:46.096Z,52.07
2019-01-03T13:55:12.115Z,52.16
2019-01-03T13:57:38.171Z,52.13
2019-01-03T14:00:04.200Z,52.28
2019-01-03T14:02:30.435Z,52.21
2019-01-03T14:04:56.476Z,52.25
2019-01-03T14:07:22.548Z,52.30
2019-01-03T14:09:48.563Z,52.30
2019-01-03T14:12:14.691Z,52.29
2019-01-03T14:14:40.732Z,52.20
2019-01-03T14:17:06.767Z,52.26
2019-01-03T14:19:32.791Z,52.31
2019-01-03T14:21:58.791Z,52.30
2019-01-03T14:24:24.906Z,52.29
2019-01-03T14:26:50.919Z,52.52
2019-01-03T14:29:16.944Z,52.32
2019-01-03T14:31:44.012Z,52.29
2019-01-03T14:34:10.340Z,52.34
2019-01-03T14:36:36.361Z,52.24
2019-01-03T14:39:02.385Z,52.28
2019-01-03T14:41:28.398Z,52.14
2019-01-03T14:43:54.435Z,52.18
2019-01-03T14:46:20.462Z,52.22
2019-01-03T14:48:46.842Z,52.16
2019-01-03T14:51:12.856Z,52.21
2019-01-03T14:53:38.867Z,52.30
2019-01-03T14:56:04.901Z,52.28
2019-01-03T14:58:30.943Z,52.28
2019-01-03T15:00:57.077Z,52.31
2019-01-03T15:03:23.207Z,52.26
2019-01-03T15:05:49.208Z,52.20
2019-01-03T15:08:15.224Z,52.23
2019-01-03T15:10:41.322Z,52.19
2019-01-03T15:13:07.347Z,52.15
2019-01-03T15:15:33.464Z,52.28
2019-01-03T15:17:59.461Z,52.14
2019-01-03T15:20:25.471Z,52.21
2019-01-03T15:22:51.493Z,52.25
2019-01-03T15:25:17.518Z,52.08
2019-01-03T15:27:43.557Z,52.17
2019-01-03T15:30:09.579Z,52.18
2019-01-03T15:32:35.647Z,52.20
2019-01-03T15:35:02.028Z,52.06
2019-01-03T15:37:28.305Z,52.10
2019-01-03T15:39:54.321Z,52.09
2019-01-03T15:42:20.327Z,52.03
2019-01-03T15:44:46.377Z,52.03
2019-01-03T15:47:12.379Z,52.06
2019-01-03T15:49:38.380Z,52.02
2019-01-03T15:52:04.503Z,52.03
2019-01-03T15:54:30.548Z,52.00
2019-01-03T15:56:56.559Z,52.02
2019-01-03T15:59:22.559Z,52.05
2019-01-03T16:01:48.596Z,52.21
2019-01-03T16:04:14.683Z,52.25
2019-01-03T16:06:40.759Z,52.02
2019-01-03T16:09:06.766Z,52.05
2019-01-03T16:11:32.810Z,52.05
2019-01-03T16:13:58.827Z,52.02
2019-01-03T16:16:24.827Z,51.96
2019-01-03T16:18:50.850Z,51.94
2019-01-03T16:21:16.977Z,52.08
2019-01-03T16:23:43.055Z,52.00
2019-01-03T16:26:09.138Z,51.99
2019-01-03T16:28:35.237Z,51.99
2019-01-03T16:31:01.288Z,51.96
2019-01-03T16:33:27.317Z,52.02
2019-01-03T16:35:53.342Z,52.00
2019-01-03T16:38:19.477Z,52.06
2019-01-03T16:40:45.495Z,51.95
2019-01-03T16:43:11.514Z,52.02
2019-01-03T16:45:37.504Z,51.98
2019-01-03T16:48:03.529Z,51.90
2019-01-03T16:50:29.552Z,52.00
2019-01-03T16:52:55.618Z,52.00
2019-01-03T16:55:21.636Z,52.01
2019-01-03T16:57:47.639Z,51.88
2019-01-03T17:00:13.668Z,51.83
2019-01-03T17:02:39.735Z,51.85
2019-01-03T17:05:05.734Z,51.80
2019-01-03T17:07:31.811Z,51.86
2019-01-03T17:09:57.838Z,51.86
2019-01-03T17:12:23.982Z,51.78
2019-01-03T17:14:49.978Z,51.88
2019-01-03T17:17:16.010Z,51.87
2019-01-03T17:19:42.173Z,52.00
2019-01-03T17:22:08.216Z,51.91
2019-01-03T17:24:34.524Z,51.88
2019-01-03T17:27:00.689Z,51.84
2019-01-03T17:29:26.691Z,51.82
2019-01-03T17:31:52.816Z,51.85
2019-01-03T17:34:18.952Z,51.84
2019-01-03T17:36:44.984Z,51.86
2019-01-03T17:39:10.990Z,51.89
2019-01-03T17:41:37.019Z,51.87
2019-01-03T17:44:03.036Z,51.75
2019-01-03T17:46:29.126Z,51.81
2019-01-03T17:48:55.169Z,51.75
2019-01-03T17:51:21.250Z,51.66
2019-01-03T17:53:47.288Z,51.77
2019-01-03T17:56:13.406Z,51.71
2019-01-03T17:58:39.481Z,51.74
2019-01-03T18:01:05.581Z,51.74
2019-01-03T18:03:31.624Z,51.76
2019-01-03T18:05:57.723Z,51.75
2019-01-03T18:08:23.736Z,51.62
2019-01-03T18:10:49.723Z,51.78
2019-01-03T18:13:15.740Z,51.87
2019-01-03T18:15:41.796Z,51.88
2019-01-03T18:18:07.869Z,51.77
2019-01-03T18:20:33.934Z,51.81
2019-01-03T18:22:59.948Z,51.89
2019-01-03T18:25:25.984Z,51.78
2019-01-03T18:27:52.048Z,51.74
2019-01-03T18:30:18.095Z,51.84
2019-01-03T18:32:44.100Z,51.77
2019-01-03T18:35:10.180Z,51.79
2019-01-03T18:37:36.213Z,52.29
2019-01-03T18:40:02.238Z,51.82
2019-01-03T18:42:28.417Z,51.77
2019-01-03T18:44:54.429Z,51.69
2019-01-03T18:47:20.463Z,51.85
2019-01-03T18:49:46.564Z,51.93
2019-01-03T18:52:12.823Z,51.73
2019-01-03T18:54:38.846Z,51.35
2019-01-03T18:57:04.958Z,51.46
2019-01-03T18:59:31.050Z,51.52
2019-01-03T19:01:57.096Z,51.51
2019-01-03T19:04:23.098Z,51.62
2019-01-03T19:06:49.153Z,50.41
2019-01-03T19:09:15.209Z,48.56
2019-01-03T19:11:41.267Z,47.08
2019-01-03T19:14:07.311Z,45.78
2019-01-03T19:16:33.383Z,46.36
2019-01-03T19:18:59.399Z,47.12
2019-01-03T19:21:25.406Z,47.84
2019-01-03T19:23:55.366Z,48.41
2019-01-03T19:26:19.197Z,48.71
2019-01-03T19:28:45.211Z,49.10
2019-01-03T19:31:11.247Z,49.15
2019-01-03T19:33:37.671Z,49.38
2019-01-03T19:36:03.803Z,49.56
2019-01-03T19:38:29.894Z,49.67
2019-01-03T19:40:55.903Z,49.79
2019-01-03T19:43:22.193Z,49.94
2019-01-03T19:45:48.301Z,49.98
2019-01-03T19:48:14.333Z,49.97
2019-01-03T19:50:40.363Z,50.10
2019-01-03T19:53:06.493Z,50.29
2019-01-03T19:55:32.538Z,50.36
2019-01-03T19:57:58.651Z,50.41
2019-01-03T20:00:24.724Z,50.52
2019-01-03T20:02:50.809Z,50.59
2019-01-03T20:05:16.843Z,50.78
2019-01-03T20:07:42.874Z,50.69
2019-01-03T20:10:08.972Z,50.69
2019-01-03T20:12:35.001Z,50.71
2019-01-03T20:15:03.344Z,50.76
2019-01-03T20:17:29.365Z,50.72
2019-01-03T20:19:55.430Z,50.72
2019-01-03T20:22:21.479Z,50.78
2019-01-03T20:24:47.534Z,50.79
2019-01-03T20:27:13.575Z,50.78
2019-01-03T20:29:39.707Z,50.81
2019-01-03T20:32:05.737Z,50.85
2019-01-03T20:34:31.872Z,50.85
2019-01-03T20:36:57.996Z,50.91
2019-01-03T20:39:24.018Z,50.91
2019-01-03T20:41:50.027Z,50.95
2019-01-03T20:44:16.074Z,50.95
2019-01-03T20:46:42.100Z,50.97
2019-01-03T20:49:08.175Z,50.97
2019-01-03T20:51:34.277Z,51.02
2019-01-03T20:54:00.373Z,51.02
2019-01-03T20:56:26.455Z,50.99
2019-01-03T20:58:52.509Z,51.01
2019-01-03T21:01:18.518Z,51.06
2019-01-03T21:03:44.544Z,51.05
2019-01-03T21:06:10.534Z,51.07
2019-01-03T21:08:36.574Z,50.94
2019-01-03T21:11:02.623Z,50.98
2019-01-03T21:13:28.771Z,51.03
2019-01-03T21:15:54.763Z,51.01
2019-01-03T21:18:20.775Z,51.08
2019-01-03T21:20:47.131Z,51.69
2019-01-03T21:23:13.163Z,51.22
2019-01-03T21:25:39.204Z,51.20
2019-01-03T21:28:05.304Z,51.04
2019-01-03T21:30:32.472Z,50.42
2019-01-03T21:32:58.514Z,50.40
2019-01-03T21:35:24.520Z,50.39
2019-01-03T21:37:50.534Z,50.61
2019-01-03T21:40:16.538Z,51.03
2019-01-03T21:42:42.584Z,50.67
2019-01-03T21:45:08.679Z,51.12
2019-01-03T21:47:34.683Z,50.82
2019-01-03T21:50:00.726Z,50.83
2019-01-03T21:52:26.808Z,50.92
2019-01-03T21:54:52.903Z,50.86
2019-01-03T21:57:18.926Z,50.86
2019-01-03T21:59:44.959Z,51.21
2019-01-03T22:02:10.963Z,51.03
2019-01-03T22:04:36.991Z,51.16
2019-01-03T22:07:03.011Z,50.99
2019-01-03T22:09:29.582Z,51.10
2019-01-03T22:11:55.593Z,51.04
2019-01-03T22:14:21.607Z,51.29
2019-01-03T22:16:47.741Z,51.24
2019-01-03T22:19:13.775Z,51.25
2019-01-03T22:21:40.129Z,51.25
2019-01-03T22:24:06.250Z,51.29
2019-01-03T22:26:32.381Z,51.31
2019-01-03T22:28:58.455Z,51.36
2019-01-03T22:31:24.483Z,51.31
2019-01-03T22:33:50.596Z,51.38
2019-01-03T22:36:16.662Z,51.30
2019-01-03T22:38:42.675Z,51.34
2019-01-03T22:41:08.695Z,51.28
2019-01-03T22:43:34.690Z,51.31
2019-01-03T22:46:00.721Z,51.41
2019-01-03T22:48:26.734Z,51.40
2019-01-03T22:50:52.883Z,51.51
2019-01-03T22:53:19.030Z,51.44
2019-01-03T22:55:45.044Z,51.57
2019-01-03T22:58:11.046Z,51.55
2019-01-03T23:00:37.066Z,51.66
2019-01-03T23:03:03.247Z,51.59
2019-01-03T23:05:29.279Z,51.69
2019-01-03T23:07:55.288Z,51.48
2019-01-03T23:10:21.550Z,51.50
2019-01-03T23:12:47.544Z,51.49
2019-01-03T23:15:13.592Z,51.60
2019-01-03T23:17:39.606Z,51.50
2019-01-03T23:20:05.727Z,51.49
2019-01-03T23:22:31.765Z,51.42
2019-01-03T23:24:57.938Z,51.58
2019-01-03T23:27:23.956Z,51.69
2019-01-03T23:29:49.983Z,51.58
2019-01-03T23:32:15.986Z,51.59
2019-01-03T23:34:42.027Z,51.60
2019-01-03T23:37:08.058Z,51.58
2019-01-03T23:39:34.169Z,51.72
2019-01-03T23:42:00.199Z,51.68
2019-01-03T23:44:26.200Z,51.70
2019-01-03T23:46:52.349Z,51.68
2019-01-03T23:49:18.519Z,51.55
2019-01-03T23:51:44.535Z,51.59
2019-01-03T23:54:10.544Z,51.60
2019-01-03T23:56:36.576Z,51.75
2019-01-03T23:59:02.604Z,51.73
